Terminal Aerodrome Forecast
Issued by NWS Wilmington, OH

Home | Current Version | Previous Version | Text Only | Print | Product List | Glossary On
Versions: 1 2 3 4 5 6 7 8 9 10 11 12 13 14 15 16 17 18 19 20 21 22 23
000
FTUS41 KILN 220500
TAFCMH
TAF
KCMH 220522Z 2206/2306 33012G20KT P6SM SCT025 OVC035
      TEMPO 2206/2209 BKN025
     FM220900 33012KT P6SM BKN035
      TEMPO 2209/2213 BKN025
     FM221300 34008KT P6SM SCT035
     FM221900 33008KT P6SM SKC
     FM230100 VRB03KT P6SM SKC=

USA.gov is the U.S. government's official web portal to all federal, state and local government web resources and services.